createdAt,value
2017-01-25T06:27:00.612Z,17.94
2017-01-25T06:27:40.122Z,17.99
2017-01-25T06:28:20.014Z,17.92
2017-01-25T06:28:53.626Z,17.96
2017-01-25T06:29:28.145Z,17.96
2017-01-25T06:30:00.867Z,18.01
2017-01-25T06:30:33.606Z,17.94
2017-01-25T06:31:06.431Z,17.98
2017-01-25T06:31:39.154Z,17.95
2017-01-25T06:32:11.875Z,17.94
2017-01-25T06:32:44.591Z,17.98
2017-01-25T06:33:17.316Z,17.96
2017-01-25T06:33:50.056Z,17.98
2017-01-25T06:34:22.848Z,17.99
2017-01-25T06:34:55.569Z,17.95
2017-01-25T06:35:28.302Z,17.99
2017-01-25T06:36:01.042Z,17.98
2017-01-25T06:36:33.773Z,17.96
2017-01-25T06:37:07.052Z,17.96
2017-01-25T06:37:39.936Z,18.01
2017-01-25T06:38:12.921Z,18.03
2017-01-25T06:38:47.884Z,17.92
2017-01-25T06:39:20.863Z,18.02
2017-01-25T06:39:53.980Z,17.99
2017-01-25T06:40:26.747Z,17.96
2017-01-25T06:41:00.636Z,17.98
2017-01-25T06:41:33.562Z,17.98
2017-01-25T06:42:07.660Z,18.01
2017-01-25T06:42:43.885Z,18.01
2017-01-25T06:43:18.343Z,18.02
2017-01-25T06:43:52.661Z,18.05
2017-01-25T06:44:26.956Z,17.99
2017-01-25T06:45:01.309Z,17.95
2017-01-25T06:45:37.398Z,18.03
2017-01-25T06:46:11.668Z,17.98
2017-01-25T06:46:49.028Z,17.95
2017-01-25T06:47:23.152Z,17.95
2017-01-25T06:47:58.009Z,18.06
2017-01-25T06:48:31.008Z,18.08
2017-01-25T06:49:03.739Z,18.02
2017-01-25T06:49:36.470Z,18.02
2017-01-25T06:50:09.242Z,18.01
2017-01-25T06:50:41.982Z,18.01
2017-01-25T06:51:15.517Z,18.02
2017-01-25T06:51:49.069Z,18.01
2017-01-25T06:52:21.799Z,18.1
2017-01-25T06:52:54.813Z,18.02
2017-01-25T06:53:27.566Z,18.05
2017-01-25T06:54:00.356Z,18.08
2017-01-25T06:54:33.712Z,18.01
2017-01-25T06:55:06.669Z,18.06
2017-01-25T06:55:39.515Z,18.05
2017-01-25T06:56:12.251Z,18.1
2017-01-25T06:56:44.986Z,18.1
2017-01-25T06:57:17.715Z,18.13
2017-01-25T06:57:50.441Z,18.03
2017-01-25T06:58:23.394Z,18.1
2017-01-25T06:58:56.129Z,18.06
2017-01-25T06:59:29.119Z,18.08
2017-01-25T07:00:02.368Z,18.05
2017-01-25T07:00:35.114Z,18.08
2017-01-25T07:01:07.917Z,18.11
2017-01-25T07:01:40.763Z,18.11
2017-01-25T07:02:14.046Z,18.02
2017-01-25T07:02:47.213Z,18.11
2017-01-25T07:03:19.963Z,18.08
2017-01-25T07:03:52.693Z,18.08
2017-01-25T07:04:25.445Z,18.02
2017-01-25T07:04:58.177Z,18.08
2017-01-25T07:05:31.017Z,18.1
2017-01-25T07:06:04.650Z,18.06
2017-01-25T07:06:38.024Z,18.06
2017-01-25T07:07:12.737Z,18.05
2017-01-25T07:07:45.527Z,18.03
2017-01-25T07:08:18.716Z,18.02
2017-01-25T07:08:52.452Z,18.06
2017-01-25T07:09:27.541Z,18.11
2017-01-25T07:10:01.523Z,18.03
2017-01-25T07:10:35.824Z,18.14
2017-01-25T07:11:09.325Z,18.1
2017-01-25T07:11:42.057Z,18.1
2017-01-25T07:12:16.108Z,18.11
2017-01-25T07:12:53.517Z,18.06
2017-01-25T07:13:27.714Z,18.16
2017-01-25T07:14:00.482Z,18.21
2017-01-25T07:14:33.210Z,18.02
2017-01-25T07:15:06.530Z,18.16
2017-01-25T07:15:44.545Z,18.17
2017-01-25T07:16:19.535Z,18.08
2017-01-25T07:16:54.610Z,18.11
2017-01-25T07:17:28.419Z,18.05
2017-01-25T07:18:03.521Z,18.17
2017-01-25T07:18:38.396Z,18.14
2017-01-25T07:19:12.330Z,18.05
2017-01-25T07:19:46.717Z,18.03
2017-01-25T07:20:22.530Z,18.08
2017-01-25T07:21:02.815Z,18.06
2017-01-25T07:21:36.877Z,18.13
2017-01-25T07:22:10.797Z,18.11
2017-01-25T07:22:46.106Z,18.19
2017-01-25T07:23:27.253Z,18.21
2017-01-25T07:24:01.208Z,18.16
2017-01-25T07:24:34.357Z,18.16
2017-01-25T07:25:08.438Z,18.17
2017-01-25T07:25:45.272Z,18.21
2017-01-25T07:26:21.024Z,18.03
2017-01-25T07:26:55.525Z,18.11
2017-01-25T07:27:31.023Z,18.14
2017-01-25T07:28:08.547Z,18.14
2017-01-25T07:28:41.797Z,18.17
2017-01-25T07:29:14.796Z,18.16
2017-01-25T07:29:49.056Z,18.03
2017-01-25T07:30:24.457Z,18.1
2017-01-25T07:31:01.354Z,18.2
2017-01-25T07:31:35.317Z,18.03
2017-01-25T07:32:12.526Z,18.1
2017-01-25T07:32:49.255Z,18.1
2017-01-25T07:33:26.466Z,18.21
2017-01-25T07:34:02.409Z,18.17
2017-01-25T07:34:38.485Z,18.14
2017-01-25T07:35:13.434Z,18.16
2017-01-25T07:35:47.392Z,18.2
2017-01-25T07:36:21.513Z,18.14
2017-01-25T07:36:55.046Z,18.21
2017-01-25T07:37:28.950Z,18.17
2017-01-25T07:38:03.528Z,18.2
2017-01-25T07:38:37.252Z,18.23
2017-01-25T07:39:12.194Z,18.19
2017-01-25T07:39:46.526Z,18.24
2017-01-25T07:40:21.055Z,18.2
2017-01-25T07:40:54.464Z,18.21
2017-01-25T07:41:27.470Z,18.17
2017-01-25T07:42:01.448Z,18.2
2017-01-25T07:42:35.063Z,18.14
2017-01-25T07:43:08.920Z,18.17
2017-01-25T07:43:43.028Z,18.1
2017-01-25T07:44:17.589Z,18.2
2017-01-25T07:44:52.050Z,18.13
2017-01-25T07:45:25.116Z,18.19
2017-01-25T07:45:58.223Z,18.21
2017-01-25T07:46:32.766Z,18.23
2017-01-25T07:47:09.360Z,18.21
2017-01-25T07:47:43.677Z,18.19
2017-01-25T07:48:19.531Z,18.21
2017-01-25T07:48:54.305Z,18.2
2017-01-25T07:49:27.111Z,18.1
2017-01-25T07:50:00.155Z,18.2
2017-01-25T07:50:35.545Z,18.16
2017-01-25T07:51:10.021Z,18.16
2017-01-25T07:51:43.666Z,18.24
2017-01-25T07:52:18.610Z,18.16
2017-01-25T07:52:52.436Z,18.26
2017-01-25T07:53:25.434Z,18.24
2017-01-25T07:53:58.787Z,18.21
2017-01-25T07:54:31.854Z,18.2
2017-01-25T07:55:07.443Z,18.17
2017-01-25T07:55:41.037Z,18.17
2017-01-25T07:56:17.076Z,18.16
2017-01-25T07:56:52.310Z,18.16
2017-01-25T07:57:26.544Z,18.23
2017-01-25T07:58:00.558Z,18.17
2017-01-25T07:58:34.549Z,18.17
2017-01-25T07:59:11.218Z,18.17
2017-01-25T07:59:44.011Z,18.24
2017-01-25T08:00:18.683Z,18.19
2017-01-25T08:00:52.634Z,18.23
2017-01-25T08:01:25.599Z,18.16
2017-01-25T08:01:58.669Z,18.16
2017-01-25T08:02:32.495Z,18.14
2017-01-25T08:03:06.181Z,18.17
2017-01-25T08:03:39.297Z,18.17
2017-01-25T08:04:12.068Z,18.21
2017-01-25T08:04:44.857Z,18.17
2017-01-25T08:05:17.637Z,18.19
2017-01-25T08:05:50.402Z,18.19
2017-01-25T08:06:23.136Z,18.19
2017-01-25T08:06:57.551Z,18.17
2017-01-25T08:07:30.382Z,18.17
2017-01-25T08:08:03.163Z,18.19
2017-01-25T08:08:35.918Z,18.19
2017-01-25T08:09:08.695Z,18.21
2017-01-25T08:09:41.439Z,18.2
2017-01-25T08:10:15.040Z,18.14
2017-01-25T08:10:50.247Z,18.24
2017-01-25T08:11:23.073Z,18.19
2017-01-25T08:11:56.712Z,18.21
2017-01-25T08:12:29.427Z,18.19
2017-01-25T08:13:02.171Z,18.26
2017-01-25T08:13:35.556Z,18.14
2017-01-25T08:14:10.845Z,18.16
2017-01-25T08:14:44.231Z,18.14
2017-01-25T08:15:16.976Z,18.19
2017-01-25T08:15:49.752Z,18.2
2017-01-25T08:16:22.522Z,18.17
2017-01-25T08:16:55.542Z,18.21
2017-01-25T08:17:28.314Z,18.2
2017-01-25T08:18:01.059Z,18.23
2017-01-25T08:18:34.646Z,18.21
2017-01-25T08:19:09.550Z,18.19
2017-01-25T08:19:45.805Z,18.17
2017-01-25T08:20:21.548Z,18.14
2017-01-25T08:20:55.541Z,18.19
2017-01-25T08:21:32.088Z,18.26
2017-01-25T08:22:07.043Z,18.2
2017-01-25T08:22:42.144Z,18.21
2017-01-25T08:23:17.878Z,18.27
2017-01-25T08:23:51.923Z,18.24
2017-01-25T08:24:27.336Z,18.2
2017-01-25T08:25:01.682Z,18.21
2017-01-25T08:25:40.170Z,18.27
2017-01-25T08:26:12.910Z,18.32
2017-01-25T08:26:45.637Z,18.36
2017-01-25T08:27:18.371Z,18.27
2017-01-25T08:27:51.132Z,18.31
2017-01-25T08:28:25.311Z,18.32
2017-01-25T08:28:59.190Z,18.27
2017-01-25T08:29:31.925Z,18.31
2017-01-25T08:30:04.712Z,18.34
2017-01-25T08:30:38.164Z,18.34
2017-01-25T08:31:14.062Z,18.32
2017-01-25T08:31:46.790Z,18.36
2017-01-25T08:32:19.532Z,18.31
2017-01-25T08:32:53.255Z,18.29
2017-01-25T08:33:26.002Z,18.41
2017-01-25T08:33:58.729Z,18.38
2017-01-25T08:34:31.548Z,18.26
2017-01-25T08:35:04.356Z,18.29
2017-01-25T08:35:37.298Z,18.36
2017-01-25T08:36:10.042Z,18.35
2017-01-25T08:36:42.878Z,18.39
2017-01-25T08:37:15.857Z,18.41
2017-01-25T08:37:48.664Z,18.29
2017-01-25T08:38:21.445Z,18.32
2017-01-25T08:38:55.417Z,18.36
2017-01-25T08:39:31.644Z,18.35
2017-01-25T08:40:06.094Z,18.31
2017-01-25T08:40:39.719Z,18.29
2017-01-25T08:41:12.652Z,18.31
2017-01-25T08:41:47.051Z,18.34
2017-01-25T08:42:19.917Z,18.35
2017-01-25T08:42:53.237Z,18.32
2017-01-25T08:43:25.965Z,18.34
2017-01-25T08:43:58.769Z,18.34
2017-01-25T08:44:31.579Z,18.34
2017-01-25T08:45:04.307Z,18.34
2017-01-25T08:45:37.071Z,18.41
2017-01-25T08:46:10.006Z,18.38
2017-01-25T08:46:43.700Z,18.36
2017-01-25T08:47:16.473Z,18.39
2017-01-25T08:47:49.811Z,18.36
2017-01-25T08:48:23.556Z,18.39
2017-01-25T08:48:57.448Z,18.39
2017-01-25T08:49:30.671Z,18.36
2017-01-25T08:50:03.452Z,18.34
2017-01-25T08:50:37.044Z,18.41
2017-01-25T08:51:11.488Z,18.39
2017-01-25T08:51:44.650Z,18.38
2017-01-25T08:52:18.077Z,18.36
2017-01-25T08:52:51.368Z,18.38
2017-01-25T08:53:25.087Z,18.36
2017-01-25T08:53:59.394Z,18.42
2017-01-25T08:54:35.211Z,18.44
2017-01-25T08:55:08.917Z,18.42
2017-01-25T08:55:42.574Z,18.42
2017-01-25T08:56:15.367Z,18.42
2017-01-25T08:56:48.382Z,18.47
2017-01-25T08:57:23.296Z,18.44
2017-01-25T08:57:57.210Z,18.44
2017-01-25T08:58:30.035Z,18.47
2017-01-25T08:59:02.923Z,18.49
2017-01-25T08:59:36.009Z,18.42
2017-01-25T09:00:09.253Z,18.49
2017-01-25T09:00:42.017Z,18.5
2017-01-25T09:01:14.793Z,18.53
2017-01-25T09:01:47.541Z,18.49
2017-01-25T09:02:20.399Z,18.5
2017-01-25T09:02:53.147Z,18.53
2017-01-25T09:03:25.882Z,18.5
2017-01-25T09:03:58.613Z,18.45
2017-01-25T09:04:31.347Z,18.54
2017-01-25T09:05:04.077Z,18.49
2017-01-25T09:05:38.581Z,18.54
2017-01-25T09:06:17.083Z,18.53
2017-01-25T09:06:54.487Z,18.51
2017-01-25T09:07:35.576Z,18.57
2017-01-25T09:08:16.568Z,18.51
2017-01-25T09:10:29.789Z,18.53
2017-01-25T09:11:15.563Z,18.59
2017-01-25T09:11:51.065Z,18.57
2017-01-25T09:12:31.172Z,18.57
2017-01-25T09:13:08.567Z,18.57
2017-01-25T09:13:52.066Z,18.6
2017-01-25T09:14:30.071Z,18.63
2017-01-25T09:15:06.062Z,18.63
2017-01-25T09:15:43.325Z,18.61
2017-01-25T09:16:19.181Z,18.65
2017-01-25T09:16:55.209Z,18.68
2017-01-25T09:17:31.922Z,18.6
2017-01-25T09:18:06.598Z,18.65
2017-01-25T09:18:44.077Z,18.61
2017-01-25T09:19:22.587Z,18.69
2017-01-25T09:20:00.435Z,18.61
2017-01-25T09:20:35.881Z,18.76
2017-01-25T09:21:10.723Z,18.68
2017-01-25T09:21:46.864Z,18.69
2017-01-25T09:22:19.938Z,18.6
2017-01-25T09:22:56.707Z,18.72
2017-01-25T09:23:33.591Z,18.75
2017-01-25T09:24:12.067Z,18.68
2017-01-25T09:24:49.585Z,18.74
2017-01-25T09:25:34.337Z,18.81
2017-01-25T09:26:08.566Z,18.72
2017-01-25T09:26:45.088Z,18.76
2017-01-25T09:27:25.068Z,18.79
2017-01-25T09:28:02.067Z,18.76
2017-01-25T09:28:35.799Z,18.87
2017-01-25T09:29:14.082Z,18.79
2017-01-25T09:29:50.068Z,18.89
2017-01-25T09:30:24.189Z,18.82
2017-01-25T09:31:00.569Z,18.86
2017-01-25T09:31:36.169Z,18.87
2017-01-25T09:32:11.170Z,18.86
2017-01-25T09:32:46.446Z,18.86
2017-01-25T09:33:20.071Z,18.89
2017-01-25T09:33:57.091Z,18.91
2017-01-25T09:34:34.588Z,18.96
2017-01-25T09:35:12.030Z,18.99
2017-01-25T09:35:50.073Z,19.05
2017-01-25T09:36:27.072Z,19.06
2017-01-25T09:37:03.587Z,19
2017-01-25T09:37:42.087Z,19.17
2017-01-25T09:38:16.628Z,19.15
2017-01-25T09:38:55.591Z,19.15
2017-01-25T09:39:34.892Z,19.13
2017-01-25T09:40:10.158Z,19.15
2017-01-25T09:40:44.821Z,19.19
2017-01-25T09:41:18.640Z,19.1
2017-01-25T09:41:55.605Z,19.2
2017-01-25T09:42:30.360Z,19.16
2017-01-25T09:43:04.585Z,19.19
2017-01-25T09:43:39.343Z,19.3
2017-01-25T09:44:13.734Z,19.31
2017-01-25T09:44:50.580Z,19.27
2017-01-25T09:45:24.842Z,19.27
2017-01-25T09:45:59.075Z,19.3
2017-01-25T09:46:36.889Z,19.35
2017-01-25T09:47:10.912Z,19.32
2017-01-25T09:47:47.088Z,19.34
2017-01-25T09:48:21.298Z,19.45
2017-01-25T09:48:56.593Z,19.38
2017-01-25T09:49:30.072Z,19.38
2017-01-25T09:50:05.408Z,19.43
2017-01-25T09:50:39.348Z,19.46
2017-01-25T09:51:13.118Z,19.47
2017-01-25T09:51:47.089Z,19.49
2017-01-25T09:52:20.787Z,19.52
2017-01-25T09:52:54.348Z,19.52
2017-01-25T09:53:27.189Z,19.5
2017-01-25T09:54:02.081Z,19.5
2017-01-25T09:54:38.454Z,19.47
2017-01-25T09:55:13.900Z,19.5
2017-01-25T09:55:47.968Z,19.61
2017-01-25T09:56:23.604Z,19.6
2017-01-25T09:57:00.203Z,19.61
2017-01-25T09:57:35.934Z,19.64
2017-01-25T09:58:12.630Z,19.7
2017-01-25T09:58:49.581Z,19.67
2017-01-25T09:59:26.408Z,19.72
2017-01-25T10:00:03.375Z,19.68
2017-01-25T10:00:43.082Z,19.68
2017-01-25T10:01:21.599Z,19.65
2017-01-25T10:01:55.126Z,19.82
2017-01-25T10:02:31.563Z,19.74
2017-01-25T10:03:05.329Z,19.79
2017-01-25T10:03:39.584Z,19.8
2017-01-25T10:04:15.589Z,19.82
2017-01-25T10:04:50.087Z,19.71
2017-01-25T10:05:24.583Z,19.9
2017-01-25T10:05:59.095Z,19.78
2017-01-25T10:06:34.190Z,19.9
2017-01-25T10:07:09.940Z,19.89
2017-01-25T10:07:44.604Z,19.87
2017-01-25T10:08:21.106Z,19.86
2017-01-25T10:08:55.125Z,19.9
2017-01-25T10:09:29.776Z,19.92
2017-01-25T10:10:03.665Z,19.97
2017-01-25T10:10:37.462Z,19.89
2017-01-25T10:11:12.218Z,20.02
2017-01-25T10:11:46.270Z,19.98
2017-01-25T10:12:19.003Z,20.07
2017-01-25T10:12:51.886Z,20.04
2017-01-25T10:13:28.312Z,20.02
2017-01-25T10:14:01.122Z,20.04
2017-01-25T10:14:35.896Z,20.04
2017-01-25T10:15:15.098Z,20.07
2017-01-25T10:15:49.999Z,20.18
2017-01-25T10:16:26.351Z,20.16
2017-01-25T10:17:05.092Z,20.18
2017-01-25T10:17:38.542Z,20.12
2017-01-25T10:18:12.158Z,20.19
2017-01-25T10:18:46.122Z,20.11
2017-01-25T10:19:20.898Z,20.2
2017-01-25T10:19:55.600Z,20.23
2017-01-25T10:20:29.224Z,20.22
2017-01-25T10:21:03.410Z,20.19
2017-01-25T10:21:37.928Z,20.22
2017-01-25T10:22:10.697Z,20.29
2017-01-25T10:22:43.458Z,20.26
2017-01-25T10:23:16.198Z,20.34
2017-01-25T10:23:48.944Z,20.37
2017-01-25T10:24:21.672Z,20.3
2017-01-25T10:24:55.195Z,20.32
2017-01-25T10:25:28.192Z,20.38
2017-01-25T10:26:00.939Z,20.3
2017-01-25T10:26:33.680Z,20.37
2017-01-25T10:27:06.407Z,20.4
2017-01-25T10:27:39.146Z,20.37
2017-01-25T10:28:11.898Z,20.37
2017-01-25T10:28:44.629Z,20.34
2017-01-25T10:29:18.194Z,20.46
2017-01-25T10:29:50.938Z,20.37
2017-01-25T10:30:23.652Z,20.38
2017-01-25T10:30:56.381Z,20.41
2017-01-25T10:31:29.358Z,20.46
2017-01-25T10:32:02.103Z,20.42
2017-01-25T10:32:34.839Z,20.51
2017-01-25T10:33:07.592Z,20.49
2017-01-25T10:33:40.322Z,20.54
2017-01-25T10:34:13.078Z,20.51
2017-01-25T10:34:45.811Z,20.6
2017-01-25T10:35:18.581Z,20.57
2017-01-25T10:35:51.299Z,20.54
2017-01-25T10:36:24.279Z,20.58
2017-01-25T10:37:05.779Z,20.58
2017-01-25T10:37:44.105Z,20.61
2017-01-25T10:38:17.044Z,20.66
2017-01-25T10:38:53.299Z,20.64
2017-01-25T10:39:26.757Z,20.71
2017-01-25T10:40:00.664Z,20.71
2017-01-25T10:40:36.205Z,20.63
2017-01-25T10:41:09.024Z,20.75
2017-01-25T10:41:41.767Z,20.66
2017-01-25T10:42:14.490Z,20.76
2017-01-25T10:42:47.217Z,20.76
2017-01-25T10:43:19.997Z,20.72
2017-01-25T10:43:52.759Z,20.81
2017-01-25T10:44:25.500Z,20.81
2017-01-25T10:44:58.224Z,20.79
2017-01-25T10:45:31.048Z,20.83
2017-01-25T10:46:03.858Z,20.81
2017-01-25T10:46:36.596Z,20.85
2017-01-25T10:47:09.327Z,20.79
2017-01-25T10:47:42.063Z,20.81
2017-01-25T10:48:14.808Z,20.82
2017-01-25T10:48:47.556Z,20.88
2017-01-25T10:49:20.287Z,20.76
2017-01-25T10:49:53.026Z,20.86
2017-01-25T10:50:25.771Z,20.88
2017-01-25T10:50:58.531Z,20.86
2017-01-25T10:51:31.252Z,20.79
2017-01-25T10:52:04.001Z,20.82
2017-01-25T10:52:36.739Z,20.79
2017-01-25T10:53:09.474Z,20.82
2017-01-25T10:53:42.223Z,20.82
2017-01-25T10:54:14.959Z,20.85
2017-01-25T10:54:47.707Z,20.71
2017-01-25T10:55:20.449Z,20.88
2017-01-25T10:55:53.194Z,20.79
2017-01-25T10:56:25.924Z,20.82
2017-01-25T10:56:58.654Z,20.83
2017-01-25T10:57:31.444Z,20.82
2017-01-25T10:58:04.344Z,20.82
2017-01-25T10:58:38.395Z,20.83
2017-01-25T10:59:12.512Z,20.85
2017-01-25T10:59:46.872Z,20.79
2017-01-25T11:00:20.462Z,20.86
2017-01-25T11:00:54.248Z,20.85
2017-01-25T11:01:27.131Z,20.82
2017-01-25T11:01:59.929Z,20.86
2017-01-25T11:02:32.658Z,20.86
2017-01-25T11:03:05.390Z,20.86
2017-01-25T11:03:38.522Z,20.79
2017-01-25T11:04:11.462Z,20.85
2017-01-25T11:04:45.669Z,20.78
2017-01-25T11:05:19.705Z,20.75
2017-01-25T11:05:53.612Z,20.79
2017-01-25T11:06:32.130Z,20.78
2017-01-25T11:07:08.604Z,20.74
2017-01-25T11:07:45.860Z,20.82
2017-01-25T11:08:22.653Z,20.81
2017-01-25T11:09:00.865Z,20.82
2017-01-25T11:09:41.630Z,20.79
2017-01-25T11:10:17.566Z,20.78
2017-01-25T11:10:53.716Z,20.82
2017-01-25T11:12:47.047Z,20.82
2017-01-25T11:13:21.703Z,20.72
2017-01-25T11:13:54.462Z,20.78
2017-01-25T11:14:27.208Z,20.78
2017-01-25T11:15:01.725Z,20.79
2017-01-25T11:15:34.487Z,20.67
2017-01-25T11:16:07.278Z,20.81
2017-01-25T11:16:41.468Z,20.68
2017-01-25T11:17:15.187Z,20.76
2017-01-25T11:17:47.902Z,20.66
2017-01-25T11:18:21.584Z,20.67
2017-01-25T11:18:54.389Z,20.72
2017-01-25T11:19:28.288Z,20.76
2017-01-25T11:20:02.623Z,20.71
2017-01-25T11:20:36.190Z,20.64
2017-01-25T11:21:09.647Z,20.68
2017-01-25T11:21:42.397Z,20.72
2017-01-25T11:22:15.123Z,20.72
2017-01-25T11:22:47.907Z,20.71
2017-01-25T11:23:20.682Z,20.75
2017-01-25T11:23:54.123Z,20.71
2017-01-25T11:24:30.454Z,20.71
2017-01-25T11:25:07.408Z,20.64
2017-01-25T11:25:43.135Z,20.68
2017-01-25T11:26:22.123Z,20.64
2017-01-25T11:26:57.905Z,20.68
2017-01-25T11:27:35.574Z,20.68
2017-01-25T11:28:10.002Z,20.63
2017-01-25T11:28:44.803Z,20.66
2017-01-25T11:29:19.896Z,20.61
2017-01-25T11:29:55.625Z,20.66
2017-01-25T11:30:29.616Z,20.66
2017-01-25T11:31:02.793Z,20.63
2017-01-25T11:31:36.025Z,20.58
2017-01-25T11:32:09.184Z,20.61
2017-01-25T11:32:43.010Z,20.66
2017-01-25T11:33:17.148Z,20.63
2017-01-25T11:33:52.704Z,20.63
2017-01-25T11:34:30.125Z,20.6
2017-01-25T11:35:05.633Z,20.68
2017-01-25T11:35:42.988Z,20.57
2017-01-25T11:36:19.699Z,20.61
2017-01-25T11:36:56.639Z,20.54
2017-01-25T11:37:31.032Z,20.6
2017-01-25T11:38:04.577Z,20.58
2017-01-25T11:38:39.217Z,20.54
2017-01-25T11:39:13.644Z,20.58
2017-01-25T11:40:04.632Z,20.61
2017-01-25T11:40:38.344Z,20.57
2017-01-25T11:41:12.674Z,20.6
2017-01-25T11:41:46.425Z,20.57
2017-01-25T11:42:24.088Z,20.6
2017-01-25T11:42:59.066Z,20.58
2017-01-25T11:43:34.273Z,20.64
2017-01-25T11:44:12.148Z,20.58
2017-01-25T11:44:56.323Z,20.57
2017-01-25T11:45:35.163Z,20.61
2017-01-25T11:46:15.137Z,20.63
2017-01-25T11:46:54.644Z,20.57
2017-01-25T11:47:37.534Z,20.58
2017-01-25T11:48:15.640Z,20.53
2017-01-25T11:48:58.173Z,20.58
2017-01-25T11:49:36.027Z,20.6
2017-01-25T11:50:13.160Z,20.58
2017-01-25T11:50:55.026Z,20.57
2017-01-25T11:51:30.720Z,20.57
2017-01-25T11:52:08.650Z,20.61
2017-01-25T11:52:52.662Z,20.51
2017-01-25T11:53:32.662Z,20.57
2017-01-25T11:54:14.454Z,20.6
2017-01-25T11:54:53.029Z,20.53
2017-01-25T11:55:27.647Z,20.54
2017-01-25T11:56:05.153Z,20.53
2017-01-25T11:56:43.192Z,20.6
2017-01-25T11:57:26.650Z,20.49
2017-01-25T11:58:02.756Z,20.48
2017-01-25T11:58:36.911Z,20.44
2017-01-25T11:59:10.457Z,20.4
2017-01-25T11:59:44.108Z,20.49
2017-01-25T12:00:18.314Z,20.53
2017-01-25T12:00:52.727Z,20.46
2017-01-25T12:01:25.573Z,20.38
2017-01-25T12:01:59.790Z,20.41
2017-01-25T12:02:33.640Z,20.44
2017-01-25T12:03:11.647Z,20.35
2017-01-25T12:03:47.121Z,20.38
2017-01-25T12:04:20.347Z,20.37
2017-01-25T12:04:56.652Z,20.35
2017-01-25T12:05:32.650Z,20.44
2017-01-25T12:06:08.158Z,20.38
2017-01-25T12:06:43.445Z,20.42
2017-01-25T12:07:22.355Z,20.42
2017-01-25T12:07:57.604Z,20.35
2017-01-25T12:08:31.850Z,20.35
2017-01-25T12:09:06.687Z,20.4
2017-01-25T12:09:42.188Z,20.37
2017-01-25T12:10:24.654Z,20.37
2017-01-25T12:11:00.260Z,20.37
2017-01-25T12:11:36.150Z,20.37
2017-01-25T12:12:15.157Z,20.27
2017-01-25T12:12:53.404Z,20.35
2017-01-25T12:13:28.118Z,20.23
2017-01-25T12:14:01.866Z,20.37
2017-01-25T12:14:35.935Z,20.26
2017-01-25T12:15:09.115Z,20.23
2017-01-25T12:15:43.107Z,20.25
2017-01-25T12:16:16.363Z,20.35
2017-01-25T12:16:49.120Z,20.22
2017-01-25T12:17:21.977Z,20.27
2017-01-25T12:17:54.798Z,20.23
2017-01-25T12:18:27.543Z,20.35
2017-01-25T12:19:01.256Z,20.22
2017-01-25T12:19:34.697Z,20.25
2017-01-25T12:20:09.341Z,20.27
2017-01-25T12:20:42.136Z,20.26
2017-01-25T12:21:14.962Z,20.18
2017-01-25T12:21:47.714Z,20.26
2017-01-25T12:22:20.483Z,20.34
2017-01-25T12:22:53.236Z,20.26
2017-01-25T12:23:25.957Z,20.29
2017-01-25T12:23:58.697Z,20.2
2017-01-25T12:24:31.502Z,20.23
2017-01-25T12:25:04.247Z,20.23
2017-01-25T12:25:36.979Z,20.2
2017-01-25T12:26:11.167Z,20.22
2017-01-25T12:26:43.899Z,20.12
2017-01-25T12:27:16.774Z,20.18
2017-01-25T12:27:50.649Z,20.15
2017-01-25T12:28:23.666Z,20.22
2017-01-25T12:28:56.480Z,20.2
2017-01-25T12:29:29.379Z,20.22
2017-01-25T12:30:02.110Z,20.2
2017-01-25T12:30:34.883Z,20.18
2017-01-25T12:31:07.611Z,20.16
2017-01-25T12:31:40.432Z,20.12
2017-01-25T12:32:13.221Z,20.2
2017-01-25T12:32:47.657Z,20.11
2017-01-25T12:33:20.401Z,20.15
2017-01-25T12:33:53.207Z,20.11
2017-01-25T12:34:26.709Z,20.05
2017-01-25T12:35:02.341Z,20.19
2017-01-25T12:35:35.659Z,20.12
2017-01-25T12:36:10.242Z,20.08
2017-01-25T12:36:42.973Z,20.19
2017-01-25T12:37:17.214Z,20.1
2017-01-25T12:37:50.715Z,20.08
2017-01-25T12:38:23.458Z,20.1
2017-01-25T12:38:56.228Z,20.11
2017-01-25T12:39:28.998Z,20.05
2017-01-25T12:40:01.752Z,20.04
2017-01-25T12:40:34.492Z,20.08
2017-01-25T12:41:07.229Z,20.08
2017-01-25T12:41:40.049Z,20.04
2017-01-25T12:42:14.715Z,20.02
2017-01-25T12:42:47.448Z,20.02
2017-01-25T12:43:20.197Z,20.07
2017-01-25T12:43:52.934Z,20.08
2017-01-25T12:44:25.667Z,20.01
2017-01-25T12:45:00.345Z,19.97
2017-01-25T12:45:33.095Z,20.04
2017-01-25T12:46:05.824Z,20.1
2017-01-25T12:46:38.567Z,20.01
2017-01-25T12:47:11.314Z,19.97
2017-01-25T12:47:44.027Z,19.97
2017-01-25T12:48:16.797Z,19.95
2017-01-25T12:48:49.529Z,19.92
2017-01-25T12:49:22.279Z,19.95
2017-01-25T12:49:55.750Z,19.92
2017-01-25T12:50:31.200Z,19.87
2017-01-25T12:51:05.005Z,19.9
2017-01-25T12:51:37.733Z,19.89
2017-01-25T12:52:10.488Z,19.87
2017-01-25T12:52:43.223Z,19.82
2017-01-25T12:53:15.959Z,19.82
2017-01-25T12:53:49.663Z,19.85
2017-01-25T12:54:23.209Z,19.89
2017-01-25T12:54:55.953Z,19.85
2017-01-25T12:55:28.743Z,19.72
2017-01-25T12:56:03.216Z,19.83
2017-01-25T12:56:36.022Z,19.86
2017-01-25T12:57:10.363Z,19.82
2017-01-25T12:57:43.077Z,19.75
2017-01-25T12:58:15.796Z,19.75
2017-01-25T12:58:48.546Z,19.72
2017-01-25T12:59:21.267Z,19.74
2017-01-25T12:59:54.664Z,19.79
2017-01-25T13:00:30.225Z,19.71
2017-01-25T13:01:04.390Z,19.75
2017-01-25T13:01:37.126Z,19.71
2017-01-25T13:02:10.684Z,19.7
2017-01-25T13:02:45.179Z,19.75
2017-01-25T13:03:18.948Z,19.67
2017-01-25T13:03:52.332Z,19.64
2017-01-25T13:04:29.693Z,19.68
2017-01-25T13:05:06.244Z,19.68
2017-01-25T13:05:39.085Z,19.7
2017-01-25T13:06:15.687Z,19.64
2017-01-25T13:06:49.591Z,19.63
2017-01-25T13:07:23.897Z,19.57
2017-01-25T13:07:58.856Z,19.6
2017-01-25T13:08:32.718Z,19.61
2017-01-25T13:09:06.354Z,19.64
2017-01-25T13:09:39.746Z,19.56
2017-01-25T13:10:12.497Z,19.53
2017-01-25T13:10:45.225Z,19.52
2017-01-25T13:11:18.669Z,19.5
2017-01-25T13:11:52.539Z,19.56
2017-01-25T13:12:25.256Z,19.47
2017-01-25T13:13:00.515Z,19.49
2017-01-25T13:13:33.889Z,19.56
2017-01-25T13:14:06.718Z,19.46
2017-01-25T13:14:39.469Z,19.47
2017-01-25T13:15:12.221Z,19.47
2017-01-25T13:15:45.218Z,19.53
2017-01-25T13:16:18.167Z,19.56
2017-01-25T13:16:51.074Z,19.45
2017-01-25T13:17:23.833Z,19.37
2017-01-25T13:17:57.180Z,19.42
2017-01-25T13:18:30.884Z,19.45
2017-01-25T13:19:04.332Z,19.46
2017-01-25T13:19:37.870Z,19.4
2017-01-25T13:20:10.608Z,19.38
2017-01-25T13:20:43.544Z,19.43
2017-01-25T13:21:16.307Z,19.49
2017-01-25T13:21:49.027Z,19.45
2017-01-25T13:22:22.147Z,19.38
2017-01-25T13:22:54.899Z,19.37
2017-01-25T13:23:27.737Z,19.34
2017-01-25T13:24:01.735Z,19.49
2017-01-25T13:24:35.175Z,19.37
2017-01-25T13:25:07.983Z,19.35
2017-01-25T13:25:40.730Z,19.35
2017-01-25T13:26:13.537Z,19.24
2017-01-25T13:26:46.275Z,19.25
2017-01-25T13:27:19.216Z,19.35
2017-01-25T13:27:52.732Z,19.32
2017-01-25T13:28:26.391Z,19.27
2017-01-25T13:28:59.155Z,19.27
2017-01-25T13:29:31.919Z,19.37
2017-01-25T13:30:04.693Z,19.31
2017-01-25T13:30:37.429Z,19.31
2017-01-25T13:31:11.349Z,19.23
2017-01-25T13:31:44.143Z,19.31
2017-01-25T13:32:17.695Z,19.25
2017-01-25T13:32:50.487Z,19.24
2017-01-25T13:33:23.328Z,19.23
2017-01-25T13:33:56.240Z,19.2
2017-01-25T13:34:29.630Z,19.23
2017-01-25T13:35:03.428Z,19.23
2017-01-25T13:35:37.130Z,19.17
2017-01-25T13:36:10.419Z,19.09
2017-01-25T13:36:44.363Z,19.15
2017-01-25T13:37:17.102Z,19.23
2017-01-25T13:37:49.857Z,19.12
2017-01-25T13:38:22.715Z,19.1
2017-01-25T13:38:55.997Z,19.12
2017-01-25T13:39:30.378Z,19.13
2017-01-25T13:40:03.443Z,19.15
2017-01-25T13:40:36.254Z,19.15
2017-01-25T13:41:09.947Z,19.1
2017-01-25T13:41:43.681Z,19.1
2017-01-25T13:42:17.510Z,19.13
2017-01-25T13:42:50.707Z,19.15
2017-01-25T13:43:23.541Z,19.02
2017-01-25T13:43:56.289Z,19.1
2017-01-25T13:44:29.036Z,19.06
2017-01-25T13:45:01.958Z,19.06
2017-01-25T13:45:34.827Z,19.15
2017-01-25T13:46:08.537Z,18.96
2017-01-25T13:46:41.362Z,19.07
2017-01-25T13:47:14.353Z,19.07
2017-01-25T13:47:47.087Z,19.02
2017-01-25T13:48:20.038Z,19
2017-01-25T13:48:53.391Z,18.97
2017-01-25T13:49:26.168Z,19.06
2017-01-25T13:49:59.023Z,18.97
2017-01-25T13:50:33.287Z,18.94
2017-01-25T13:51:06.449Z,19.06
2017-01-25T13:51:39.325Z,19
2017-01-25T13:52:12.069Z,18.99
2017-01-25T13:52:44.787Z,19
2017-01-25T13:53:17.562Z,18.97